sensor_id;sensor_type;location;lat;lon;timestamp;P1;durP1;ratioP1;P2;durP2;ratioP2
17504;SDS011;8870;50.950;11.762;2023-05-18T00:05:05;5.10;;;1.60;;
17504;SDS011;8870;50.950;11.762;2023-05-18T00:10:41;6.32;;;1.40;;
17504;SDS011;8870;50.950;11.762;2023-05-18T00:15:59;6.78;;;1.60;;
17504;SDS011;8870;50.950;11.762;2023-05-18T00:21:33;6.35;;;1.40;;
17504;SDS011;8870;50.950;11.762;2023-05-18T00:26:56;5.28;;;1.70;;
17504;SDS011;8870;50.950;11.762;2023-05-18T00:32:27;5.15;;;1.45;;
17504;SDS011;8870;50.950;11.762;2023-05-18T00:37:59;4.78;;;1.50;;
17504;SDS011;8870;50.950;11.762;2023-05-18T00:43:24;8.30;;;1.65;;
17504;SDS011;8870;50.950;11.762;2023-05-18T00:48:56;6.85;;;1.73;;
17504;SDS011;8870;50.950;11.762;2023-05-18T00:54:16;5.35;;;1.42;;
17504;SDS011;8870;50.950;11.762;2023-05-18T00:59:49;4.57;;;1.40;;
17504;SDS011;8870;50.950;11.762;2023-05-18T01:05:11;4.88;;;1.70;;
17504;SDS011;8870;50.950;11.762;2023-05-18T01:10:42;6.78;;;1.73;;
17504;SDS011;8870;50.950;11.762;2023-05-18T01:16:06;6.45;;;1.60;;
17504;SDS011;8870;50.950;11.762;2023-05-18T01:21:43;5.15;;;1.40;;
17504;SDS011;8870;50.950;11.762;2023-05-18T01:27:15;4.75;;;1.60;;
17504;SDS011;8870;50.950;11.762;2023-05-18T01:32:47;7.65;;;1.80;;
17504;SDS011;8870;50.950;11.762;2023-05-18T01:38:06;6.30;;;1.65;;
17504;SDS011;8870;50.950;11.762;2023-05-18T01:43:41;6.03;;;1.48;;
17504;SDS011;8870;50.950;11.762;2023-05-18T01:49:06;8.18;;;1.75;;
17504;SDS011;8870;50.950;11.762;2023-05-18T01:54:43;4.63;;;1.50;;
17504;SDS011;8870;50.950;11.762;2023-05-18T02:00:06;6.65;;;1.70;;
17504;SDS011;8870;50.950;11.762;2023-05-18T02:05:39;6.32;;;1.65;;
17504;SDS011;8870;50.950;11.762;2023-05-18T02:10:58;6.55;;;1.77;;
17504;SDS011;8870;50.950;11.762;2023-05-18T02:16:33;3.85;;;1.45;;
17504;SDS011;8870;50.950;11.762;2023-05-18T02:21:52;6.57;;;1.60;;
17504;SDS011;8870;50.950;11.762;2023-05-18T02:27:22;7.28;;;1.50;;
17504;SDS011;8870;50.950;11.762;2023-05-18T02:32:51;6.40;;;1.67;;
17504;SDS011;8870;50.950;11.762;2023-05-18T02:38:24;6.40;;;1.70;;
17504;SDS011;8870;50.950;11.762;2023-05-18T02:43:43;9.55;;;1.67;;
17504;SDS011;8870;50.950;11.762;2023-05-18T02:49:16;9.13;;;2.00;;
17504;SDS011;8870;50.950;11.762;2023-05-18T02:54:35;7.07;;;1.98;;
17504;SDS011;8870;50.950;11.762;2023-05-18T03:00:23;6.65;;;1.77;;
17504;SDS011;8870;50.950;11.762;2023-05-18T03:05:45;5.47;;;1.70;;
17504;SDS011;8870;50.950;11.762;2023-05-18T03:11:16;6.85;;;1.90;;
17504;SDS011;8870;50.950;11.762;2023-05-18T03:16:35;5.93;;;1.80;;
17504;SDS011;8870;50.950;11.762;2023-05-18T03:22:11;5.95;;;1.60;;
17504;SDS011;8870;50.950;11.762;2023-05-18T03:27:30;9.02;;;2.10;;
17504;SDS011;8870;50.950;11.762;2023-05-18T03:33:01;9.18;;;1.90;;
17504;SDS011;8870;50.950;11.762;2023-05-18T03:38:22;7.70;;;1.90;;
17504;SDS011;8870;50.950;11.762;2023-05-18T03:43:54;6.18;;;1.90;;
17504;SDS011;8870;50.950;11.762;2023-05-18T03:49:13;4.88;;;1.60;;
17504;SDS011;8870;50.950;11.762;2023-05-18T03:54:47;5.43;;;1.70;;
17504;SDS011;8870;50.950;11.762;2023-05-18T04:00:07;7.63;;;1.85;;
17504;SDS011;8870;50.950;11.762;2023-05-18T04:05:39;7.40;;;1.92;;
17504;SDS011;8870;50.950;11.762;2023-05-18T04:11:00;5.53;;;1.80;;
17504;SDS011;8870;50.950;11.762;2023-05-18T04:16:31;5.95;;;2.05;;
17504;SDS011;8870;50.950;11.762;2023-05-18T04:21:50;6.70;;;2.00;;
17504;SDS011;8870;50.950;11.762;2023-05-18T04:27:23;7.95;;;2.30;;
17504;SDS011;8870;50.950;11.762;2023-05-18T04:32:49;5.47;;;1.90;;
17504;SDS011;8870;50.950;11.762;2023-05-18T04:38:21;8.10;;;2.10;;
17504;SDS011;8870;50.950;11.762;2023-05-18T04:43:42;6.55;;;2.10;;
17504;SDS011;8870;50.950;11.762;2023-05-18T04:49:13;7.75;;;2.35;;
17504;SDS011;8870;50.950;11.762;2023-05-18T04:54:36;7.25;;;2.20;;
17504;SDS011;8870;50.950;11.762;2023-05-18T05:00:11;7.18;;;2.25;;
17504;SDS011;8870;50.950;11.762;2023-05-18T05:05:30;7.55;;;2.20;;
17504;SDS011;8870;50.950;11.762;2023-05-18T05:11:02;6.38;;;1.98;;
17504;SDS011;8870;50.950;11.762;2023-05-18T05:16:23;6.35;;;2.00;;
17504;SDS011;8870;50.950;11.762;2023-05-18T05:21:54;7.05;;;2.03;;
17504;SDS011;8870;50.950;11.762;2023-05-18T05:27:13;7.18;;;1.85;;
17504;SDS011;8870;50.950;11.762;2023-05-18T05:32:49;5.70;;;1.90;;
17504;SDS011;8870;50.950;11.762;2023-05-18T05:38:21;6.28;;;2.08;;
17504;SDS011;8870;50.950;11.762;2023-05-18T05:43:46;6.63;;;1.88;;
17504;SDS011;8870;50.950;11.762;2023-05-18T05:49:20;7.20;;;2.00;;
17504;SDS011;8870;50.950;11.762;2023-05-18T05:54:40;7.72;;;1.85;;
17504;SDS011;8870;50.950;11.762;2023-05-18T06:00:13;4.95;;;1.45;;
17504;SDS011;8870;50.950;11.762;2023-05-18T06:05:37;4.55;;;1.58;;
17504;SDS011;8870;50.950;11.762;2023-05-18T06:11:10;5.18;;;1.52;;
17504;SDS011;8870;50.950;11.762;2023-05-18T06:16:29;5.65;;;1.73;;
17504;SDS011;8870;50.950;11.762;2023-05-18T06:22:02;2.85;;;1.30;;
17504;SDS011;8870;50.950;11.762;2023-05-18T06:27:41;6.90;;;1.50;;
17504;SDS011;8870;50.950;11.762;2023-05-18T06:33:19;5.28;;;1.73;;
17504;SDS011;8870;50.950;11.762;2023-05-18T06:38:53;6.37;;;1.47;;
17504;SDS011;8870;50.950;11.762;2023-05-18T06:44:12;7.35;;;1.98;;
17504;SDS011;8870;50.950;11.762;2023-05-18T06:49:54;5.30;;;1.70;;
17504;SDS011;8870;50.950;11.762;2023-05-18T06:55:14;5.35;;;1.60;;
17504;SDS011;8870;50.950;11.762;2023-05-18T07:00:46;5.63;;;1.55;;
17504;SDS011;8870;50.950;11.762;2023-05-18T07:06:04;6.15;;;1.60;;
17504;SDS011;8870;50.950;11.762;2023-05-18T07:11:38;6.22;;;1.80;;
17504;SDS011;8870;50.950;11.762;2023-05-18T07:16:59;5.45;;;1.50;;
17504;SDS011;8870;50.950;11.762;2023-05-18T07:22:30;6.18;;;1.65;;
17504;SDS011;8870;50.950;11.762;2023-05-18T07:28:04;4.70;;;1.67;;
17504;SDS011;8870;50.950;11.762;2023-05-18T07:33:23;5.70;;;1.60;;
17504;SDS011;8870;50.950;11.762;2023-05-18T07:38:55;5.38;;;1.15;;
17504;SDS011;8870;50.950;11.762;2023-05-18T07:44:16;4.95;;;1.40;;
17504;SDS011;8870;50.950;11.762;2023-05-18T07:49:48;5.80;;;1.58;;
17504;SDS011;8870;50.950;11.762;2023-05-18T07:55:06;5.57;;;1.60;;
17504;SDS011;8870;50.950;11.762;2023-05-18T08:00:40;3.75;;;1.48;;
17504;SDS011;8870;50.950;11.762;2023-05-18T08:05:59;5.47;;;1.40;;
17504;SDS011;8870;50.950;11.762;2023-05-18T08:11:30;5.22;;;1.48;;
17504;SDS011;8870;50.950;11.762;2023-05-18T08:16:50;8.55;;;1.77;;
17504;SDS011;8870;50.950;11.762;2023-05-18T08:22:23;4.90;;;1.60;;
17504;SDS011;8870;50.950;11.762;2023-05-18T08:27:41;4.20;;;1.48;;
17504;SDS011;8870;50.950;11.762;2023-05-18T08:33:15;4.18;;;1.48;;
17504;SDS011;8870;50.950;11.762;2023-05-18T08:38:47;3.85;;;1.40;;
17504;SDS011;8870;50.950;11.762;2023-05-18T08:44:08;5.55;;;1.55;;
17504;SDS011;8870;50.950;11.762;2023-05-18T08:49:47;5.20;;;1.73;;
17504;SDS011;8870;50.950;11.762;2023-05-18T08:55:08;3.05;;;1.20;;
17504;SDS011;8870;50.950;11.762;2023-05-18T09:00:41;4.22;;;1.52;;
17504;SDS011;8870;50.950;11.762;2023-05-18T09:06:01;6.28;;;1.50;;
17504;SDS011;8870;50.950;11.762;2023-05-18T09:11:38;3.10;;;1.23;;
17504;SDS011;8870;50.950;11.762;2023-05-18T09:16:56;3.55;;;1.23;;
17504;SDS011;8870;50.950;11.762;2023-05-18T09:22:29;4.40;;;1.15;;
17504;SDS011;8870;50.950;11.762;2023-05-18T09:27:49;4.03;;;1.20;;
17504;SDS011;8870;50.950;11.762;2023-05-18T09:33:14;4.88;;;1.40;;
17504;SDS011;8870;50.950;11.762;2023-05-18T09:38:50;3.58;;;1.23;;
17504;SDS011;8870;50.950;11.762;2023-05-18T09:44:10;4.43;;;1.48;;
17504;SDS011;8870;50.950;11.762;2023-05-18T09:49:41;5.70;;;1.73;;
17504;SDS011;8870;50.950;11.762;2023-05-18T09:55:01;4.10;;;1.38;;
17504;SDS011;8870;50.950;11.762;2023-05-18T10:00:40;3.63;;;1.30;;
17504;SDS011;8870;50.950;11.762;2023-05-18T10:06:01;5.75;;;1.73;;
17504;SDS011;8870;50.950;11.762;2023-05-18T10:11:36;3.08;;;1.20;;
17504;SDS011;8870;50.950;11.762;2023-05-18T10:16:57;3.80;;;1.88;;
17504;SDS011;8870;50.950;11.762;2023-05-18T10:22:31;5.30;;;1.83;;
17504;SDS011;8870;50.950;11.762;2023-05-18T10:27:54;4.18;;;1.50;;
17504;SDS011;8870;50.950;11.762;2023-05-18T10:33:27;4.97;;;1.80;;
17504;SDS011;8870;50.950;11.762;2023-05-18T10:39:00;6.38;;;2.30;;
17504;SDS011;8870;50.950;11.762;2023-05-18T10:44:22;3.90;;;1.38;;
17504;SDS011;8870;50.950;11.762;2023-05-18T10:49:54;4.20;;;1.45;;
17504;SDS011;8870;50.950;11.762;2023-05-18T10:55:15;5.70;;;1.70;;
17504;SDS011;8870;50.950;11.762;2023-05-18T11:00:51;4.13;;;1.33;;
17504;SDS011;8870;50.950;11.762;2023-05-18T11:06:11;4.07;;;1.30;;
17504;SDS011;8870;50.950;11.762;2023-05-18T11:11:51;4.40;;;1.40;;
17504;SDS011;8870;50.950;11.762;2023-05-18T11:17:19;4.53;;;1.52;;
17504;SDS011;8870;50.950;11.762;2023-05-18T11:23:00;3.20;;;1.10;;
17504;SDS011;8870;50.950;11.762;2023-05-18T11:28:20;2.72;;;1.25;;
17504;SDS011;8870;50.950;11.762;2023-05-18T11:33:56;3.47;;;1.20;;
17504;SDS011;8870;50.950;11.762;2023-05-18T11:39:22;3.13;;;1.10;;
17504;SDS011;8870;50.950;11.762;2023-05-18T11:45:06;3.83;;;1.10;;
17504;SDS011;8870;50.950;11.762;2023-05-18T11:50:27;2.60;;;1.27;;
17504;SDS011;8870;50.950;11.762;2023-05-18T11:56:00;2.83;;;1.50;;
17504;SDS011;8870;50.950;11.762;2023-05-18T12:01:18;4.85;;;1.65;;
17504;SDS011;8870;50.950;11.762;2023-05-18T12:06:52;2.50;;;1.10;;
17504;SDS011;8870;50.950;11.762;2023-05-18T12:12:13;3.17;;;0.98;;
17504;SDS011;8870;50.950;11.762;2023-05-18T12:17:47;3.10;;;1.30;;
17504;SDS011;8870;50.950;11.762;2023-05-18T12:23:08;2.28;;;1.00;;
17504;SDS011;8870;50.950;11.762;2023-05-18T12:28:40;2.88;;;1.20;;
17504;SDS011;8870;50.950;11.762;2023-05-18T12:34:00;3.15;;;1.10;;
17504;SDS011;8870;50.950;11.762;2023-05-18T12:39:34;2.75;;;1.00;;
17504;SDS011;8870;50.950;11.762;2023-05-18T12:44:53;4.15;;;1.00;;
17504;SDS011;8870;50.950;11.762;2023-05-18T12:50:25;2.75;;;1.10;;
17504;SDS011;8870;50.950;11.762;2023-05-18T12:55:54;3.33;;;1.20;;
17504;SDS011;8870;50.950;11.762;2023-05-18T13:01:39;4.30;;;1.30;;
17504;SDS011;8870;50.950;11.762;2023-05-18T13:06:59;2.00;;;0.98;;
17504;SDS011;8870;50.950;11.762;2023-05-18T13:12:45;2.72;;;1.10;;
17504;SDS011;8870;50.950;11.762;2023-05-18T13:18:05;2.00;;;1.00;;
17504;SDS011;8870;50.950;11.762;2023-05-18T13:23:39;4.93;;;1.10;;
17504;SDS011;8870;50.950;11.762;2023-05-18T13:29:03;4.28;;;1.00;;
17504;SDS011;8870;50.950;11.762;2023-05-18T13:34:37;4.72;;;1.23;;
17504;SDS011;8870;50.950;11.762;2023-05-18T13:39:56;3.22;;;1.17;;
17504;SDS011;8870;50.950;11.762;2023-05-18T13:45:33;2.70;;;1.08;;
17504;SDS011;8870;50.950;11.762;2023-05-18T13:50:51;5.03;;;1.50;;
17504;SDS011;8870;50.950;11.762;2023-05-18T13:56:22;5.70;;;1.23;;
17504;SDS011;8870;50.950;11.762;2023-05-18T14:01:44;4.03;;;1.20;;
17504;SDS011;8870;50.950;11.762;2023-05-18T14:07:15;2.83;;;1.17;;
17504;SDS011;8870;50.950;11.762;2023-05-18T14:12:33;1.75;;;0.80;;
17504;SDS011;8870;50.950;11.762;2023-05-18T14:18:09;3.17;;;1.10;;
17504;SDS011;8870;50.950;11.762;2023-05-18T14:23:28;2.88;;;1.05;;
17504;SDS011;8870;50.950;11.762;2023-05-18T14:29:00;4.82;;;1.17;;
17504;SDS011;8870;50.950;11.762;2023-05-18T14:34:21;2.58;;;1.08;;
17504;SDS011;8870;50.950;11.762;2023-05-18T14:39:52;3.00;;;1.02;;
17504;SDS011;8870;50.950;11.762;2023-05-18T14:45:10;2.72;;;0.90;;
17504;SDS011;8870;50.950;11.762;2023-05-18T14:50:44;4.28;;;1.08;;
17504;SDS011;8870;50.950;11.762;2023-05-18T14:56:03;2.97;;;0.90;;
17504;SDS011;8870;50.950;11.762;2023-05-18T15:01:35;3.92;;;1.20;;
17504;SDS011;8870;50.950;11.762;2023-05-18T15:06:56;4.25;;;1.00;;
17504;SDS011;8870;50.950;11.762;2023-05-18T15:12:29;3.03;;;1.30;;
17504;SDS011;8870;50.950;11.762;2023-05-18T15:17:47;2.88;;;1.55;;
17504;SDS011;8870;50.950;11.762;2023-05-18T15:23:20;5.47;;;1.58;;
17504;SDS011;8870;50.950;11.762;2023-05-18T15:28:40;4.30;;;1.73;;
17504;SDS011;8870;50.950;11.762;2023-05-18T15:34:12;2.15;;;0.95;;
17504;SDS011;8870;50.950;11.762;2023-05-18T15:39:46;3.83;;;1.20;;
17504;SDS011;8870;50.950;11.762;2023-05-18T15:45:05;2.55;;;1.10;;
17504;SDS011;8870;50.950;11.762;2023-05-18T15:50:38;2.35;;;1.13;;
17504;SDS011;8870;50.950;11.762;2023-05-18T15:55:59;2.13;;;1.10;;
17504;SDS011;8870;50.950;11.762;2023-05-18T16:01:31;2.50;;;1.20;;
17504;SDS011;8870;50.950;11.762;2023-05-18T16:06:49;2.60;;;1.20;;
17504;SDS011;8870;50.950;11.762;2023-05-18T16:12:23;2.92;;;1.00;;
17504;SDS011;8870;50.950;11.762;2023-05-18T16:17:41;4.68;;;1.15;;
17504;SDS011;8870;50.950;11.762;2023-05-18T16:23:14;3.13;;;1.10;;
17504;SDS011;8870;50.950;11.762;2023-05-18T16:28:35;2.80;;;1.10;;
17504;SDS011;8870;50.950;11.762;2023-05-18T16:34:07;4.00;;;1.10;;
17504;SDS011;8870;50.950;11.762;2023-05-18T16:39:38;2.92;;;1.10;;
17504;SDS011;8870;50.950;11.762;2023-05-18T16:44:59;4.18;;;1.00;;
17504;SDS011;8870;50.950;11.762;2023-05-18T16:50:30;2.85;;;0.98;;
17504;SDS011;8870;50.950;11.762;2023-05-18T16:55:49;3.85;;;1.20;;
17504;SDS011;8870;50.950;11.762;2023-05-18T17:01:23;3.70;;;1.20;;
17504;SDS011;8870;50.950;11.762;2023-05-18T17:06:41;2.97;;;1.20;;
17504;SDS011;8870;50.950;11.762;2023-05-18T17:12:13;4.35;;;1.00;;
17504;SDS011;8870;50.950;11.762;2023-05-18T17:17:34;4.05;;;1.10;;
17504;SDS011;8870;50.950;11.762;2023-05-18T17:23:06;2.85;;;1.30;;
17504;SDS011;8870;50.950;11.762;2023-05-18T17:28:27;3.78;;;1.17;;
17504;SDS011;8870;50.950;11.762;2023-05-18T17:34:01;4.40;;;1.35;;
17504;SDS011;8870;50.950;11.762;2023-05-18T17:39:32;2.80;;;1.13;;
17504;SDS011;8870;50.950;11.762;2023-05-18T17:44:50;2.72;;;1.00;;
17504;SDS011;8870;50.950;11.762;2023-05-18T17:50:24;5.22;;;1.13;;
17504;SDS011;8870;50.950;11.762;2023-05-18T17:55:43;3.63;;;1.02;;
17504;SDS011;8870;50.950;11.762;2023-05-18T18:01:14;3.75;;;1.20;;
17504;SDS011;8870;50.950;11.762;2023-05-18T18:06:51;2.85;;;0.95;;
17504;SDS011;8870;50.950;11.762;2023-05-18T18:12:15;2.63;;;1.00;;
17504;SDS011;8870;50.950;11.762;2023-05-18T18:17:48;2.50;;;1.30;;
17504;SDS011;8870;50.950;11.762;2023-05-18T18:23:09;3.45;;;1.10;;
17504;SDS011;8870;50.950;11.762;2023-05-18T18:28:40;3.80;;;1.23;;
17504;SDS011;8870;50.950;11.762;2023-05-18T18:34:05;4.10;;;1.40;;
17504;SDS011;8870;50.950;11.762;2023-05-18T18:39:39;5.90;;;1.10;;
17504;SDS011;8870;50.950;11.762;2023-05-18T18:44:57;2.38;;;1.10;;
17504;SDS011;8870;50.950;11.762;2023-05-18T18:50:29;4.30;;;1.00;;
17504;SDS011;8870;50.950;11.762;2023-05-18T18:55:50;2.80;;;1.00;;
17504;SDS011;8870;50.950;11.762;2023-05-18T19:01:22;2.08;;;0.95;;
17504;SDS011;8870;50.950;11.762;2023-05-18T19:06:40;4.80;;;1.10;;
17504;SDS011;8870;50.950;11.762;2023-05-18T19:12:18;3.22;;;1.10;;
17504;SDS011;8870;50.950;11.762;2023-05-18T19:17:36;3.40;;;1.40;;
17504;SDS011;8870;50.950;11.762;2023-05-18T19:23:12;3.67;;;1.30;;
17504;SDS011;8870;50.950;11.762;2023-05-18T19:28:33;7.03;;;1.40;;
17504;SDS011;8870;50.950;11.762;2023-05-18T19:34:04;3.05;;;1.52;;
17504;SDS011;8870;50.950;11.762;2023-05-18T19:39:35;3.83;;;1.43;;
17504;SDS011;8870;50.950;11.762;2023-05-18T19:44:56;2.75;;;1.48;;
17504;SDS011;8870;50.950;11.762;2023-05-18T19:50:27;4.97;;;1.50;;
17504;SDS011;8870;50.950;11.762;2023-05-18T19:55:47;3.63;;;1.40;;
17504;SDS011;8870;50.950;11.762;2023-05-18T20:01:22;3.17;;;1.30;;
17504;SDS011;8870;50.950;11.762;2023-05-18T20:06:41;3.70;;;1.45;;
17504;SDS011;8870;50.950;11.762;2023-05-18T20:12:13;4.78;;;1.30;;
17504;SDS011;8870;50.950;11.762;2023-05-18T20:17:34;5.45;;;1.73;;
17504;SDS011;8870;50.950;11.762;2023-05-18T20:23:06;4.35;;;1.33;;
17504;SDS011;8870;50.950;11.762;2023-05-18T20:28:25;4.25;;;1.55;;
17504;SDS011;8870;50.950;11.762;2023-05-18T20:33:59;3.90;;;1.50;;
17504;SDS011;8870;50.950;11.762;2023-05-18T20:39:30;3.13;;;1.27;;
17504;SDS011;8870;50.950;11.762;2023-05-18T20:44:49;2.78;;;1.50;;
17504;SDS011;8870;50.950;11.762;2023-05-18T20:50:24;3.50;;;1.20;;
17504;SDS011;8870;50.950;11.762;2023-05-18T20:55:42;3.85;;;1.25;;
17504;SDS011;8870;50.950;11.762;2023-05-18T21:01:14;3.35;;;1.25;;
17504;SDS011;8870;50.950;11.762;2023-05-18T21:06:37;3.17;;;1.17;;
17504;SDS011;8870;50.950;11.762;2023-05-18T21:12:09;3.30;;;1.40;;
17504;SDS011;8870;50.950;11.762;2023-05-18T21:17:27;2.83;;;1.30;;
17504;SDS011;8870;50.950;11.762;2023-05-18T21:23:01;4.32;;;1.50;;
17504;SDS011;8870;50.950;11.762;2023-05-18T21:28:19;4.75;;;1.55;;
17504;SDS011;8870;50.950;11.762;2023-05-18T21:33:52;3.90;;;1.40;;
17504;SDS011;8870;50.950;11.762;2023-05-18T21:39:28;3.95;;;1.60;;
17504;SDS011;8870;50.950;11.762;2023-05-18T21:44:46;4.00;;;1.50;;
17504;SDS011;8870;50.950;11.762;2023-05-18T21:50:18;3.65;;;1.58;;
17504;SDS011;8870;50.950;11.762;2023-05-18T21:55:39;5.65;;;1.60;;
17504;SDS011;8870;50.950;11.762;2023-05-18T22:01:10;5.10;;;1.70;;
17504;SDS011;8870;50.950;11.762;2023-05-18T22:06:40;4.38;;;1.40;;
17504;SDS011;8870;50.950;11.762;2023-05-18T22:12:14;4.97;;;1.50;;
17504;SDS011;8870;50.950;11.762;2023-05-18T22:17:32;5.30;;;1.63;;
17504;SDS011;8870;50.950;11.762;2023-05-18T22:23:06;2.55;;;1.27;;
17504;SDS011;8870;50.950;11.762;2023-05-18T22:28:28;4.50;;;1.52;;
17504;SDS011;8870;50.950;11.762;2023-05-18T22:33:59;2.92;;;1.50;;
17504;SDS011;8870;50.950;11.762;2023-05-18T22:39:30;5.55;;;1.50;;
17504;SDS011;8870;50.950;11.762;2023-05-18T22:44:51;4.10;;;1.55;;
17504;SDS011;8870;50.950;11.762;2023-05-18T22:50:22;3.58;;;1.42;;
17504;SDS011;8870;50.950;11.762;2023-05-18T22:55:40;4.93;;;1.60;;
17504;SDS011;8870;50.950;11.762;2023-05-18T23:01:14;3.78;;;1.33;;
17504;SDS011;8870;50.950;11.762;2023-05-18T23:06:32;3.30;;;1.20;;
17504;SDS011;8870;50.950;11.762;2023-05-18T23:12:05;3.75;;;1.35;;
17504;SDS011;8870;50.950;11.762;2023-05-18T23:17:27;3.92;;;1.30;;
17504;SDS011;8870;50.950;11.762;2023-05-18T23:23:00;7.35;;;1.60;;
17504;SDS011;8870;50.950;11.762;2023-05-18T23:28:18;5.80;;;1.38;;
17504;SDS011;8870;50.950;11.762;2023-05-18T23:33:53;2.83;;;1.40;;
17504;SDS011;8870;50.950;11.762;2023-05-18T23:39:25;3.53;;;1.50;;
17504;SDS011;8870;50.950;11.762;2023-05-18T23:44:45;7.13;;;1.55;;
17504;SDS011;8870;50.950;11.762;2023-05-18T23:50:20;5.10;;;1.40;;
17504;SDS011;8870;50.950;11.762;2023-05-18T23:55:39;4.78;;;1.40;;
